sensor_id;sensor_type;location;lat;lon;timestamp;pressure;altitude;pressure_sealevel;temperature;humidity
2036;BME280;23642;42.658;23.350;2023-05-21T10:11:38;53566.59;;;-146.31;41.25
2036;BME280;23642;42.658;23.350;2023-05-21T10:14:14;53601.69;;;-146.31;40.67
2036;BME280;23642;42.658;23.350;2023-05-21T10:16:50;53545.94;;;-146.31;39.42
2036;BME280;23642;42.658;23.350;2023-05-21T10:19:28;53531.50;;;-146.31;36.89
2036;BME280;23642;42.658;23.350;2023-05-21T10:22:21;53413.84;;;-146.31;37.73
2036;BME280;23642;42.658;23.350;2023-05-21T10:25:34;53548.00;;;-146.31;36.49
2036;BME280;23642;42.658;23.350;2023-05-21T10:28:25;53490.22;;;-146.31;35.95
2036;BME280;23642;42.658;23.350;2023-05-21T10:31:14;53422.09;;;-146.31;36.76
2036;BME280;23642;42.658;23.350;2023-05-21T10:33:42;53353.97;;;-146.31;37.26
2036;BME280;23642;42.658;23.350;2023-05-21T10:39:15;53548.00;;;-146.31;35.44
2036;BME280;23642;42.658;23.350;2023-05-21T10:42:05;53465.44;;;-146.31;36.50
2036;BME280;23642;42.658;23.350;2023-05-21T10:44:55;53500.53;;;-146.31;37.89
2036;BME280;23642;42.658;23.350;2023-05-21T10:47:48;53581.03;;;-146.31;35.29
2036;BME280;23642;42.658;23.350;2023-05-21T10:50:43;53665.66;;;-146.31;36.01
2036;BME280;23642;42.658;23.350;2023-05-21T10:53:21;53704.91;;;-146.31;38.29
2036;BME280;23642;42.658;23.350;2023-05-21T10:56:02;53609.94;;;-146.31;37.72
2036;BME280;23642;42.658;23.350;2023-05-21T11:01:41;53775.09;;;-146.31;39.03
2036;BME280;23642;42.658;23.350;2023-05-21T11:04:11;53837.03;;;-146.31;39.66
2036;BME280;23642;42.658;23.350;2023-05-21T11:06:46;53956.75;;;-146.31;40.18
2036;BME280;23642;42.658;23.350;2023-05-21T11:09:14;53911.34;;;-146.31;40.74
2036;BME280;23642;42.658;23.350;2023-05-21T11:11:57;53894.81;;;-146.31;40.72
2036;BME280;23642;42.658;23.350;2023-05-21T11:14:30;53919.59;;;-146.31;40.93
2036;BME280;23642;42.658;23.350;2023-05-21T11:17:09;53931.97;;;-146.31;40.46
2036;BME280;23642;42.658;23.350;2023-05-21T11:20:01;53814.31;;;-146.31;39.46
2036;BME280;23642;42.658;23.350;2023-05-21T11:22:48;53715.22;;;-146.31;37.94
2036;BME280;23642;42.658;23.350;2023-05-21T11:28:39;53841.16;;;-146.31;37.87
2036;BME280;23642;42.658;23.350;2023-05-21T11:31:26;53830.81;;;-146.31;39.60
2036;BME280;23642;42.658;23.350;2023-05-21T11:34:11;53987.72;;;-146.31;39.51
2036;BME280;23642;42.658;23.350;2023-05-21T11:36:40;54049.66;;;-146.31;41.12
2036;BME280;23642;42.658;23.350;2023-05-21T11:39:12;54105.41;;;-146.31;40.03
2036;BME280;23642;42.658;23.350;2023-05-21T11:41:56;54159.09;;;-146.31;41.13
2036;BME280;23642;42.658;23.350;2023-05-21T11:44:39;54111.59;;;-146.31;43.32
2036;BME280;23642;42.658;23.350;2023-05-21T11:47:13;54148.78;;;-146.31;42.42
2036;BME280;23642;42.658;23.350;2023-05-21T11:49:45;54138.44;;;-146.31;41.83
2036;BME280;23642;42.658;23.350;2023-05-21T11:52:15;54105.41;;;-146.31;41.05
2036;BME280;23642;42.658;23.350;2023-05-21T11:54:46;54196.25;;;-146.31;41.15
2036;BME280;23642;42.658;23.350;2023-05-21T11:57:15;54159.09;;;-146.31;41.77
2036;BME280;23642;42.658;23.350;2023-05-21T11:59:46;54258.19;;;-146.31;41.89
2036;BME280;23642;42.658;23.350;2023-05-21T12:02:18;54299.50;;;-146.31;42.19
2036;BME280;23642;42.658;23.350;2023-05-21T12:04:50;54295.34;;;-146.31;42.92
2036;BME280;23642;42.658;23.350;2023-05-21T12:07:18;54311.88;;;-146.31;43.51
2036;BME280;23642;42.658;23.350;2023-05-21T12:10:15;54299.50;;;-146.31;44.03
2036;BME280;23642;42.658;23.350;2023-05-21T12:13:13;54291.22;;;-146.31;44.49
2036;BME280;23642;42.658;23.350;2023-05-21T12:15:40;54270.59;;;-146.31;44.30
2036;BME280;23642;42.658;23.350;2023-05-21T12:18:09;54254.06;;;-146.31;45.02
2036;BME280;23642;42.658;23.350;2023-05-21T12:20:42;54214.84;;;-146.31;45.59
2036;BME280;23642;42.658;23.350;2023-05-21T12:23:44;54233.41;;;-146.31;45.67
2036;BME280;23642;42.658;23.350;2023-05-21T12:29:28;54202.44;;;-146.31;46.67
2036;BME280;23642;42.658;23.350;2023-05-21T12:34:42;54231.34;;;-146.31;47.30
2036;BME280;23642;42.658;23.350;2023-05-21T12:37:16;54225.16;;;-146.31;47.06
2036;BME280;23642;42.658;23.350;2023-05-21T12:39:45;54221.03;;;-146.31;46.78
2036;BME280;23642;42.658;23.350;2023-05-21T12:42:42;54185.94;;;-146.31;49.08
2036;BME280;23642;42.658;23.350;2023-05-21T12:45:13;54190.06;;;-146.31;47.54
2036;BME280;23642;42.658;23.350;2023-05-21T12:47:49;54216.91;;;-146.31;47.30
2036;BME280;23642;42.658;23.350;2023-05-21T12:50:39;54157.03;;;-146.31;48.36
2036;BME280;23642;42.658;23.350;2023-05-21T12:53:45;54144.63;;;-146.31;48.61
2036;BME280;23642;42.658;23.350;2023-05-21T12:56:31;54146.69;;;-146.31;49.00
2036;BME280;23642;42.658;23.350;2023-05-21T12:59:46;54146.69;;;-146.31;49.43
2036;BME280;23642;42.658;23.350;2023-05-21T13:02:24;54175.59;;;-146.31;48.86
2036;BME280;23642;42.658;23.350;2023-05-21T13:05:05;54190.06;;;-146.31;48.69
2036;BME280;23642;42.658;23.350;2023-05-21T13:08:09;54185.94;;;-146.31;47.78
2036;BME280;23642;42.658;23.350;2023-05-21T13:10:50;54154.97;;;-146.31;48.16
2036;BME280;23642;42.658;23.350;2023-05-21T13:13:30;54237.53;;;-146.31;46.09
2036;BME280;23642;42.658;23.350;2023-05-21T13:16:01;54196.25;;;-146.31;46.80
2036;BME280;23642;42.658;23.350;2023-05-21T13:18:44;54146.69;;;-146.31;48.26
2036;BME280;23642;42.658;23.350;2023-05-21T13:21:26;54204.50;;;-146.31;46.14
2036;BME280;23642;42.658;23.350;2023-05-21T13:24:00;54192.13;;;-146.31;45.47
2036;BME280;23642;42.658;23.350;2023-05-21T13:26:46;54216.91;;;-146.31;44.33
2036;BME280;23642;42.658;23.350;2023-05-21T13:29:17;54175.59;;;-146.31;44.54
2036;BME280;23642;42.658;23.350;2023-05-21T13:31:47;54136.38;;;-146.31;44.27
2036;BME280;23642;42.658;23.350;2023-05-21T13:34:14;54115.72;;;-146.31;43.84
2036;BME280;23642;42.658;23.350;2023-05-21T13:36:41;54080.63;;;-146.31;43.68
2036;BME280;23642;42.658;23.350;2023-05-21T13:39:08;54047.59;;;-146.31;42.96
2036;BME280;23642;42.658;23.350;2023-05-21T13:41:41;54101.28;;;-146.31;42.95
2036;BME280;23642;42.658;23.350;2023-05-21T13:44:14;54138.44;;;-146.31;42.96
2036;BME280;23642;42.658;23.350;2023-05-21T13:49:26;54105.41;;;-146.31;43.66
2036;BME280;23642;42.658;23.350;2023-05-21T13:51:53;54134.31;;;-146.31;43.75
2036;BME280;23642;42.658;23.350;2023-05-21T13:54:22;54144.63;;;-146.31;45.35
2036;BME280;23642;42.658;23.350;2023-05-21T13:57:03;54136.38;;;-146.31;46.22
2036;BME280;23642;42.658;23.350;2023-05-21T13:59:36;54060.00;;;-146.31;46.12
2036;BME280;23642;42.658;23.350;2023-05-21T14:02:08;54076.50;;;-146.31;46.78
2036;BME280;23642;42.658;23.350;2023-05-21T14:04:37;54088.88;;;-146.31;46.46
2036;BME280;23642;42.658;23.350;2023-05-21T14:07:09;54111.59;;;-146.31;46.75
2036;BME280;23642;42.658;23.350;2023-05-21T14:09:38;54105.41;;;-146.31;47.41
2036;BME280;23642;42.658;23.350;2023-05-21T14:12:20;54126.06;;;-146.31;47.28
2036;BME280;23642;42.658;23.350;2023-05-21T14:14:49;54080.63;;;-146.31;46.98
2036;BME280;23642;42.658;23.350;2023-05-21T14:17:44;54068.25;;;-146.31;46.33
2036;BME280;23642;42.658;23.350;2023-05-21T14:20:25;54119.88;;;-146.31;45.61
2036;BME280;23642;42.658;23.350;2023-05-21T14:23:03;54060.00;;;-146.31;45.43
2036;BME280;23642;42.658;23.350;2023-05-21T14:25:41;53977.41;;;-146.31;45.08
2036;BME280;23642;42.658;23.350;2023-05-21T14:31:59;53950.56;;;-146.31;44.41
2036;BME280;23642;42.658;23.350;2023-05-21T14:35:03;53987.72;;;-146.31;43.84
2036;BME280;23642;42.658;23.350;2023-05-21T14:37:38;54024.88;;;-146.31;44.50
2036;BME280;23642;42.658;23.350;2023-05-21T14:43:48;54113.66;;;-146.31;46.01
2036;BME280;23642;42.658;23.350;2023-05-21T14:49:57;54163.22;;;-146.31;47.09
2036;BME280;23642;42.658;23.350;2023-05-21T14:53:10;54225.16;;;-146.31;47.27
2036;BME280;23642;42.658;23.350;2023-05-21T14:56:16;54214.84;;;-146.31;48.74
2036;BME280;23642;42.658;23.350;2023-05-21T15:02:47;54212.78;;;-146.31;50.93
2036;BME280;23642;42.658;23.350;2023-05-21T15:09:08;54229.28;;;-146.31;49.82
2036;BME280;23642;42.658;23.350;2023-05-21T15:11:55;54229.28;;;-146.31;50.24
2036;BME280;23642;42.658;23.350;2023-05-21T15:17:45;54256.13;;;-146.31;51.91
2036;BME280;23642;42.658;23.350;2023-05-21T15:24:09;54231.34;;;-146.31;51.91
2036;BME280;23642;42.658;23.350;2023-05-21T15:27:30;54196.25;;;-146.31;51.88
2036;BME280;23642;42.658;23.350;2023-05-21T15:30:25;54163.22;;;-146.31;51.22
2036;BME280;23642;42.658;23.350;2023-05-21T15:36:01;54266.44;;;-146.31;47.14
2036;BME280;23642;42.658;23.350;2023-05-21T15:38:31;54293.28;;;-146.31;47.48
2036;BME280;23642;42.658;23.350;2023-05-21T15:41:28;54270.59;;;-146.31;47.79
2036;BME280;23642;42.658;23.350;2023-05-21T15:44:00;54309.81;;;-146.31;45.55
2036;BME280;23642;42.658;23.350;2023-05-21T15:56:53;54134.31;;;-146.31;46.76
2036;BME280;23642;42.658;23.350;2023-05-21T15:59:27;54181.81;;;-146.31;44.67
2036;BME280;23642;42.658;23.350;2023-05-21T16:01:56;54126.06;;;-146.31;44.75
2036;BME280;23642;42.658;23.350;2023-05-21T16:04:30;53998.06;;;-146.31;43.16
2036;BME280;23642;42.658;23.350;2023-05-21T16:06:59;54105.41;;;-146.31;43.21
2036;BME280;23642;42.658;23.350;2023-05-21T16:09:26;54154.97;;;-146.31;45.13
2036;BME280;23642;42.658;23.350;2023-05-21T16:12:09;54231.34;;;-146.31;46.39
2036;BME280;23642;42.658;23.350;2023-05-21T16:15:11;54280.91;;;-146.31;46.63
2036;BME280;23642;42.658;23.350;2023-05-21T16:20:56;54340.78;;;-146.31;48.69
2036;BME280;23642;42.658;23.350;2023-05-21T16:23:40;54371.75;;;-146.31;48.86
2036;BME280;23642;42.658;23.350;2023-05-21T16:26:11;54382.09;;;-146.31;49.30
2036;BME280;23642;42.658;23.350;2023-05-21T16:28:44;54386.22;;;-146.31;49.51
2036;BME280;23642;42.658;23.350;2023-05-21T16:31:33;54423.38;;;-146.31;50.23
2036;BME280;23642;42.658;23.350;2023-05-21T16:37:08;54456.41;;;-146.31;52.22
2036;BME280;23642;42.658;23.350;2023-05-21T16:43:26;54489.44;;;-146.31;51.31
2036;BME280;23642;42.658;23.350;2023-05-21T16:46:07;54495.66;;;-146.31;52.08
2036;BME280;23642;42.658;23.350;2023-05-21T16:48:56;54503.91;;;-146.31;51.99
2036;BME280;23642;42.658;23.350;2023-05-21T16:51:42;54528.69;;;-146.31;52.11
2036;BME280;23642;42.658;23.350;2023-05-21T16:54:10;54475.00;;;-146.31;53.19
2036;BME280;23642;42.658;23.350;2023-05-21T16:56:37;54501.84;;;-146.31;52.48
2036;BME280;23642;42.658;23.350;2023-05-21T17:03:18;54516.28;;;-146.31;52.15
2036;BME280;23642;42.658;23.350;2023-05-21T17:09:55;54543.13;;;-146.31;52.33
2036;BME280;23642;42.658;23.350;2023-05-21T17:12:23;54534.88;;;-146.31;52.38
2036;BME280;23642;42.658;23.350;2023-05-21T17:15:27;54567.91;;;-146.31;52.70
2036;BME280;23642;42.658;23.350;2023-05-21T17:25:20;54553.47;;;-146.31;53.81
2036;BME280;23642;42.658;23.350;2023-05-21T17:32:11;54547.28;;;-146.31;54.55
2036;BME280;23642;42.658;23.350;2023-05-21T17:50:55;54543.13;;;-146.31;55.49
2036;BME280;23642;42.658;23.350;2023-05-21T17:54:24;54588.56;;;-146.31;55.91
2036;BME280;23642;42.658;23.350;2023-05-21T17:57:12;54565.84;;;-146.31;55.47
2036;BME280;23642;42.658;23.350;2023-05-21T17:59:55;54598.88;;;-146.31;56.83
2036;BME280;23642;42.658;23.350;2023-05-21T18:05:35;54584.44;;;-146.31;57.55
2036;BME280;23642;42.658;23.350;2023-05-21T18:12:30;54636.06;;;-146.31;60.21
2036;BME280;23642;42.658;23.350;2023-05-21T18:16:11;54679.44;;;-146.31;61.50
2036;BME280;23642;42.658;23.350;2023-05-21T18:57:56;54489.44;;;-146.31;60.63
2036;BME280;23642;42.658;23.350;2023-05-21T19:55:17;54316.00;;;-146.31;68.78
2036;BME280;23642;42.658;23.350;2023-05-21T19:58:06;54305.69;;;-146.31;68.79
2036;BME280;23642;42.658;23.350;2023-05-21T20:00:39;54282.97;;;-146.31;68.61
2036;BME280;23642;42.658;23.350;2023-05-21T20:03:15;54262.31;;;-146.31;68.53
2036;BME280;23642;42.658;23.350;2023-05-21T20:05:56;54247.88;;;-146.31;68.61
2036;BME280;23642;42.658;23.350;2023-05-21T20:08:43;54258.19;;;-146.31;68.74
2036;BME280;23642;42.658;23.350;2023-05-21T20:11:19;54270.59;;;-146.31;68.48
2036;BME280;23642;42.658;23.350;2023-05-21T20:13:55;54241.69;;;-146.31;68.65
2036;BME280;23642;42.658;23.350;2023-05-21T20:16:25;54254.06;;;-146.31;68.33
2036;BME280;23642;42.658;23.350;2023-05-21T20:19:16;54252.00;;;-146.31;68.20
2036;BME280;23642;42.658;23.350;2023-05-21T20:25:22;54198.31;;;-146.31;70.70
2036;BME280;23642;42.658;23.350;2023-05-21T20:27:55;54218.97;;;-146.31;71.36
2036;BME280;23642;42.658;23.350;2023-05-21T20:30:31;54181.81;;;-146.31;71.23
2036;BME280;23642;42.658;23.350;2023-05-21T20:32:59;54130.19;;;-146.31;72.03
2036;BME280;23642;42.658;23.350;2023-05-21T20:35:35;54130.19;;;-146.31;72.35
2036;BME280;23642;42.658;23.350;2023-05-21T20:38:11;54047.59;;;-146.31;71.68
2036;BME280;23642;42.658;23.350;2023-05-21T20:40:46;54041.41;;;-146.31;68.01
2036;BME280;23642;42.658;23.350;2023-05-21T20:46:27;54121.94;;;-146.31;70.90
2036;BME280;23642;42.658;23.350;2023-05-21T20:49:12;54043.47;;;-146.31;71.95
2036;BME280;23642;42.658;23.350;2023-05-21T20:51:56;54055.84;;;-146.31;69.54
2036;BME280;23642;42.658;23.350;2023-05-21T20:54:30;54078.56;;;-146.31;69.79
2036;BME280;23642;42.658;23.350;2023-05-21T20:57:13;54086.81;;;-146.31;70.65
2036;BME280;23642;42.658;23.350;2023-05-21T20:59:44;54101.28;;;-146.31;72.64
2036;BME280;23642;42.658;23.350;2023-05-21T21:02:15;54117.78;;;-146.31;72.71
2036;BME280;23642;42.658;23.350;2023-05-21T21:04:53;54080.63;;;-146.31;74.07
2036;BME280;23642;42.658;23.350;2023-05-21T21:07:24;54084.75;;;-146.31;75.32
2036;BME280;23642;42.658;23.350;2023-05-21T21:10:00;54068.25;;;-146.31;76.40
2036;BME280;23642;42.658;23.350;2023-05-21T21:12:29;54037.28;;;-146.31;75.69
2036;BME280;23642;42.658;23.350;2023-05-21T21:14:56;54018.69;;;-146.31;76.47
2036;BME280;23642;42.658;23.350;2023-05-21T21:17:34;54033.16;;;-146.31;76.47
2036;BME280;23642;42.658;23.350;2023-05-21T21:20:10;54006.31;;;-146.31;76.62
2036;BME280;23642;42.658;23.350;2023-05-21T21:22:54;54012.50;;;-146.31;76.38
2036;BME280;23642;42.658;23.350;2023-05-21T21:25:22;53960.88;;;-146.31;75.49
2036;BME280;23642;42.658;23.350;2023-05-21T21:27:53;54002.19;;;-146.31;75.52
2036;BME280;23642;42.658;23.350;2023-05-21T21:30:41;53996.00;;;-146.31;75.67
2036;BME280;23642;42.658;23.350;2023-05-21T21:36:43;53950.56;;;-146.31;76.11
2036;BME280;23642;42.658;23.350;2023-05-21T21:39:10;53950.56;;;-146.31;76.98
2036;BME280;23642;42.658;23.350;2023-05-21T21:45:11;53911.34;;;-146.31;81.87
2036;BME280;23642;42.658;23.350;2023-05-21T21:50:41;53839.09;;;-146.31;85.04
2036;BME280;23642;42.658;23.350;2023-05-21T21:53:10;53789.53;;;-146.31;86.99
2036;BME280;23642;42.658;23.350;2023-05-21T21:55:41;53737.94;;;-146.31;89.19
2036;BME280;23642;42.658;23.350;2023-05-21T21:58:24;53671.88;;;-146.31;89.82
2036;BME280;23642;42.658;23.350;2023-05-21T22:04:10;53554.19;;;-146.31;93.23
2036;BME280;23642;42.658;23.350;2023-05-21T22:06:54;53510.84;;;-146.31;93.76
2036;BME280;23642;42.658;23.350;2023-05-21T22:09:21;53440.66;;;-146.31;94.28
2036;BME280;23642;42.658;23.350;2023-05-21T22:11:50;53395.25;;;-146.31;94.61
2036;BME280;23642;42.658;23.350;2023-05-21T22:14:17;53360.16;;;-146.31;94.81
2036;BME280;23642;42.658;23.350;2023-05-21T22:16:50;53294.09;;;-146.31;94.79
2036;BME280;23642;42.658;23.350;2023-05-21T22:19:19;53248.69;;;-146.31;94.79
2036;BME280;23642;42.658;23.350;2023-05-21T22:21:48;53246.63;;;-146.31;95.12
2036;BME280;23642;42.658;23.350;2023-05-21T22:24:23;53213.59;;;-146.31;95.46
2036;BME280;23642;42.658;23.350;2023-05-21T22:26:59;53190.91;;;-146.31;95.62
2036;BME280;23642;42.658;23.350;2023-05-21T22:29:31;53131.03;;;-146.31;95.91
2036;BME280;23642;42.658;23.350;2023-05-21T22:38:02;53106.28;;;-146.31;96.02
2036;BME280;23642;42.658;23.350;2023-05-21T22:41:11;53036.09;;;-146.31;96.31
2036;BME280;23642;42.658;23.350;2023-05-21T22:52:47;52881.31;;;-146.31;98.84
2036;BME280;23642;42.658;23.350;2023-05-21T23:04:03;52629.53;;;-146.31;99.67
2036;BME280;23642;42.658;23.350;2023-05-21T23:22:40;52181.72;;;-146.31;100.00
2036;BME280;23642;42.658;23.350;2023-05-21T23:28:14;52239.50;;;-146.31;100.00
2036;BME280;23642;42.658;23.350;2023-05-21T23:34:25;52270.44;;;-146.31;98.67
2036;BME280;23642;42.658;23.350;2023-05-21T23:40:33;52218.88;;;-146.31;99.53
2036;BME280;23642;42.658;23.350;2023-05-21T23:53:25;52055.84;;;-146.31;100.00
2036;BME280;23642;42.658;23.350;2023-05-21T23:56:15;52029.03;;;-146.31;100.00
